Mendota, IL (61342)

12:23 AM CDT on March 30, 2017 (GMT -0500)
Welland and Angling Roads | | Change Station
Active Advisory: Flood Watch Active Notice: Flood Watch

Elev 833 ft 41.63 °N, 89.02 °W | Updated 4 seconds ago

Rain
Rain
43.0 °F
Feels Like 36 °F
N
13.6
Wind Variable Wind from ENE
Gusts 19.7 mph

Today
High -- | Low -- °F
--% Chance of Precip.
Yesterday
High -- | Low -- °F
Precip. -- in
Pressure 29.90 in
Visibility 10.0 miles
Clouds Overcast 4000 ft
Windchill 36 °F
Dew Point 39 °F
Humidity 87%
Rainfall 0.00 in
Snow Depth Not available.
6:42 AM 7:19 PM
Waxing Crescent, 6% visible
METAR KVYS 300515Z AUTO 08018G24KT 10SM TSRA OVC040 07/04 A2990 RMK AO2 LTG DSNT SE THRU W T00660042
Pressure 29.90 in
Visibility 10.0 miles
Clouds Overcast 4000 ft
Windchill 36 °F
Dew Point 39 °F
Humidity 87%
Rainfall 0.00 in
Snow Depth Not available.
6:42 AM 7:19 PM
Waxing Crescent, 6% visible
METAR KVYS 300515Z AUTO 08018G24KT 10SM TSRA OVC040 07/04 A2990 RMK AO2 LTG DSNT SE THRU W T00660042

Get Your Daily Forecast Email!

Thanks for signing up!

Be on the lookout for a verification email in your inbox.

You'll start receiving severe weather alerts in your inbox..

×

10-Day Weather Forecast

Almanac

Astronomy

Mar. 30, 2017 Rise Set
Actual Time
Civil Twilight
Nautical Twilight
Astronomical Twilight
Moon
Length of Visible Light
Length of Day
Tomorrow will be .
, % of the Moon is Illuminated

Today's Extremes

State Highs State Lows

Community

WunderPhotos

Upload Photos

1,962,540 photos uploaded!

WunderBlog® & News

Nearby

Air Quality

  Air Quality AQ Index Pollutant
Not available.

Snow Depth

Station Depth Elevation

Earthquake Activity

City Distance Mag. Time & Date
Minimum magnitude displayed is 2.5.

Earthquake Activity

City Distance Mag. Time & Date
Minimum magnitude displayed is 2.5.

Coastal Water Temperatures

Place Temperature

Stations

Nearby Weather Stations

Station Location Temp. Windchill Dew Point Humidity Wind Precip. Elev Updated Type
                   

Watches & Warnings

Flood Watch
Issued: 10:11 PM CDT Mar. 29, 2017 – National Weather Service

The National Weather Service in Chicago has issued a
* Flood Watch for
the Illinois River at La Salle
* from Friday evening to Tuesday afternoon.
* At 9:45 PM Wednesday the stage was 14.4 feet.
* Minor flooding is possible.
* Flood stage is 20.0 feet.
* Forecast... flood stage may be reached by Friday evening.
* Impact... at 22.0 feet... Riverside parking lot at Starved Rock State
Park floods.


Lat... Lon 4137 8896 4135 8929 4126 8930 4128 8896